EPSC/SZZ METAR and TAF weather

Enter ICAO airport designator
Station Type Date Time Source
EPSC METAR 2022/09/26 09:30 UTC NOAA

EPSC 260930Z 20007KT 170V240 9999 FEW027 14/08 Q1004


Station Type Date Time Source
EPSC Decoded METAR 2022/09/26 09:30 UTC NOAA

Szczecin, Poland (EPSC) 53-24N 014-37E 3M
Sep 26, 2022 - 05:30 AM EDT / 2022.09.26 0930 UTC
Wind: from the SSW (200 degrees) at 8 MPH (7 KT) (direction variable):0
Visibility: greater than 7 mile(s):0
Sky conditions: mostly clear
Temperature: 57 F (14 C)
Dew Point: 46 F (8 C)
Relative Humidity: 67%
Pressure (altimeter): 29.65 in. Hg (1004 hPa)
ob: EPSC 260930Z 20007KT 170V240 9999 FEW027 14/08 Q1004
cycle: 9

Station Type Date Time Source
EPSC TAF 2022/09/26 06:42 UTC NOAA

TAF
AMD TAF
AMD EPSC 260635Z 2606/2706 22006KT CAVOK
TEMPO 2606/2608 1500 BR BKN002
BECMG 2615/2617 16010KT

Example: see airport list